»·PEaware :: N5002T KBUR-KBUR

N5002T :: KBUR-KBUR

FLIGHT INFORMATION

Flight Status: Arrived
Operator: Privately registered:
United States
More flights under this callsign
Pilot: Hunter M. (19355)
Aircraft: CESSNA 172 SKYHAWK
(C172)
More flights by this aircraft type
Origin: KBUR Bob Hope-Burbank
United States
Destination: KBUR Bob Hope-Burbank
United States
More flights between these airports :: More routes between these airports
Route: +VNY3 VTU
File this flight plan on PilotEdge
Remarks: Practice RNAV gps z rwy 8 vectors to VTU
Altitude:
(Current/Filed)
5,000ft
Speed:
(Current/Filed)
115kts
Departed: 30-Oct-18 02:57 PM
Arrived: 30-Oct-18 03:46 PM
Distance/Time
Traveled:
0nm/0:48
Distance/Time
To Go:
Arrived

Flight Plot

Page will automatically refresh every two minutes.

Flight plan parsing failed; only flown route is shown


Map Options




Map Legend


Flown Route
Filed Route
Departure Airport
Arrival Airport
Navaid (VOR, NDB)
Fix

Horizontal Profiles

Position Reports

Time Latitude Longitude Heading Altitude Ground
Speed
30-Oct-18 14:26 34.195721 -118.359581 181 781ft 0kts
30-Oct-18 14:27 34.195721 -118.359581 181 781ft 0kts
30-Oct-18 14:28 34.195721 -118.359581 181 781ft 0kts
30-Oct-18 14:29 34.195721 -118.359581 181 781ft 0kts
30-Oct-18 14:30 34.195721 -118.359581 181 781ft 0kts
30-Oct-18 14:31 34.195721 -118.359581 181 781ft 0kts
30-Oct-18 14:32 34.195721 -118.359581 181 781ft 0kts
30-Oct-18 14:33 34.195720 -118.359581 181 781ft 0kts
30-Oct-18 14:34 34.195719 -118.359581 181 781ft 0kts
30-Oct-18 14:35 34.195718 -118.359581 181 781ft 0kts
30-Oct-18 14:36 34.195716 -118.359581 181 781ft 0kts
30-Oct-18 14:37 34.195715 -118.359581 181 781ft 0kts
30-Oct-18 14:38 34.195714 -118.359581 181 781ft 0kts
30-Oct-18 14:39 34.195712 -118.359581 181 781ft 0kts
30-Oct-18 14:40 34.195711 -118.359581 181 781ft 0kts
30-Oct-18 14:41 34.195710 -118.359581 181 781ft 0kts
30-Oct-18 14:42 34.195709 -118.359581 181 781ft 0kts
30-Oct-18 14:43 34.195707 -118.359582 181 781ft 0kts
30-Oct-18 14:44 34.195706 -118.359582 181 781ft 0kts
30-Oct-18 14:45 34.195705 -118.359582 181 781ft 0kts
30-Oct-18 14:46 34.195703 -118.359582 181 781ft 0kts
30-Oct-18 14:47 34.195702 -118.359582 181 781ft 0kts
30-Oct-18 14:48 34.195701 -118.359582 181 781ft 0kts
30-Oct-18 14:49 34.195699 -118.359582 181 781ft 0kts
30-Oct-18 14:50 34.195698 -118.359582 181 781ft 0kts
30-Oct-18 14:51 34.195691 -118.359582 181 781ft 1kts
30-Oct-18 14:52 34.195976 -118.360125 314 781ft 4kts
30-Oct-18 14:53 34.196652 -118.360868 259 781ft 8kts
30-Oct-18 14:54 34.196674 -118.363097 271 781ft 19kts
30-Oct-18 14:55 34.196688 -118.366423 276 781ft 6kts
30-Oct-18 14:56 34.196957 -118.368947 338 781ft 2kts
30-Oct-18 14:57 34.197222 -118.369007 357 781ft 0kts
30-Oct-18 14:58 34.197904 -118.368707 83 781ft 0kts
30-Oct-18 14:59 34.197392 -118.354349 100 1110ft 71kts
30-Oct-18 15:00 34.182351 -118.364480 225 1980ft 76kts
30-Oct-18 15:01 34.166472 -118.383938 225 2829ft 79kts
30-Oct-18 15:02 34.149491 -118.401798 225 3568ft 87kts
30-Oct-18 15:03 34.129929 -118.423115 242 4020ft 103kts
30-Oct-18 15:04 34.124364 -118.458441 262 3985ft 103kts
30-Oct-18 15:05 34.119388 -118.491088 262 4004ft 96kts
30-Oct-18 15:06 34.114476 -118.522849 262 4008ft 96kts
30-Oct-18 15:07 34.109561 -118.554563 262 4009ft 96kts
30-Oct-18 15:08 34.104616 -118.586384 262 4010ft 96kts
30-Oct-18 15:09 34.101899 -118.618425 267 4012ft 96kts
30-Oct-18 15:10 34.099336 -118.650477 267 4017ft 95kts
30-Oct-18 15:11 34.096766 -118.682458 267 4017ft 96kts
30-Oct-18 15:12 34.094172 -118.714549 267 4018ft 96kts
30-Oct-18 15:13 34.091604 -118.746290 267 4434ft 92kts
30-Oct-18 15:14 34.089061 -118.776372 267 4988ft 90kts
30-Oct-18 15:15 34.086389 -118.808182 267 5021ft 96kts
30-Oct-18 15:16 34.083692 -118.840476 267 5016ft 96kts
30-Oct-18 15:17 34.080963 -118.872728 267 5016ft 96kts
30-Oct-18 15:18 34.078224 -118.904993 267 5017ft 96kts
30-Oct-18 15:19 34.075478 -118.937305 267 5017ft 96kts
30-Oct-18 15:20 34.072763 -118.969502 267 5020ft 96kts
30-Oct-18 15:21 34.070039 -119.001772 267 5020ft 96kts
30-Oct-18 15:22 34.067312 -119.034091 267 5019ft 96kts
30-Oct-18 15:23 34.064587 -119.066371 267 5017ft 97kts
30-Oct-18 15:24 34.080238 -119.068664 37 5040ft 102kts
30-Oct-18 15:25 34.101195 -119.044644 39 5020ft 104kts
30-Oct-18 15:26 34.121329 -119.019483 43 5008ft 105kts
30-Oct-18 15:27 34.135335 -118.986834 63 4667ft 109kts
30-Oct-18 15:28 34.146494 -118.952884 64 4606ft 106kts
30-Oct-18 15:29 34.157181 -118.919955 64 4609ft 105kts
30-Oct-18 15:30 34.167833 -118.887069 64 4609ft 105kts
30-Oct-18 15:31 34.178485 -118.854139 64 4609ft 105kts
30-Oct-18 15:32 34.189141 -118.821148 64 4613ft 105kts
30-Oct-18 15:33 34.199801 -118.788094 64 4613ft 105kts
30-Oct-18 15:34 34.202588 -118.752129 88 4380ft 111kts
30-Oct-18 15:35 34.202174 -118.715658 87 4090ft 100kts
30-Oct-18 15:36 34.201836 -118.683690 87 4117ft 95kts
30-Oct-18 15:37 34.201461 -118.650612 87 4114ft 100kts
30-Oct-18 15:39 34.201081 -118.618738 87 4110ft 100kts
30-Oct-18 15:40 34.200684 -118.583901 88 3707ft 107kts
30-Oct-18 15:41 34.200236 -118.548035 88 3042ft 103kts
30-Oct-18 15:42 34.199862 -118.518065 87 2960ft 76kts
30-Oct-18 15:43 34.199559 -118.493360 87 3034ft 79kts
30-Oct-18 15:44 34.199621 -118.466049 87 2981ft 77kts
30-Oct-18 15:45 34.198747 -118.443960 87 2210ft 61kts
30-Oct-18 15:46 34.199122 -118.423689 93 1501ft 59kts
30-Oct-18 15:47 34.198416 -118.403949 88 1285ft 57kts
30-Oct-18 15:48 34.198203 -118.384637 90 1010ft 54kts
30-Oct-18 15:49 34.197895 -118.366832 89 781ft 40kts
30-Oct-18 15:50 34.197164 -118.364534 181 781ft 0kts
30-Oct-18 15:51 34.196479 -118.365166 175 781ft 11kts
30-Oct-18 15:52 34.195788 -118.365157 178 781ft 0kts

Navigation Log

Ident Type
Flight plan parsing failed, navigation log unavailable